Carrier Princess — CZ3582 — position and weather

sailwx.info

Track history (hours):
 
Tides and Currents Weather Stations Pressure Air Temp Water Temp Dewpoint Dewpoint Depression Visibility Wind Speed Wind Dir Waves Ship Positions

Carrier Princess

Last reported at 2016-Aug-29 06:33 UTC. Time now 2016-Aug-29 07:16 UTC.
Position N 49°09' W 123°02'.

Length 112 m; draft 3 m.

Type: Cargo ship. MMSI: 316003656.

Date/timePositionNaut miles runAvg speedWind from/ knotsBaromVisibWave heightAir tempDewpointWater temp
2016-Aug-29 06:33N 49°09' W 123°02'0 0.0
2016-Aug-29 05:34N 49°09' W 123°02'0 0.0
2016-Aug-29 04:34N 49°09' W 123°02'0 0.0
2016-Aug-29 03:33N 49°09' W 123°02'0 0.0
2016-Aug-29 02:34N 49°09' W 123°02'0 0.0
2016-Aug-29 01:33N 49°09' W 123°02'0 0.0
2016-Aug-29 00:33N 49°09' W 123°02'0 0.0
2016-Aug-28 23:34N 49°09' W 123°02'0 0.0
2016-Aug-28 22:34N 49°09' W 123°02'0 0.0
2016-Aug-28 21:33N 49°09' W 123°02'0 0.0
2016-Aug-28 20:34N 49°09' W 123°02'0 0.0
2016-Aug-28 19:34N 49°09' W 123°02'0 0.0
2016-Aug-28 18:34N 49°09' W 123°02'0 0.0
2016-Aug-28 17:34N 49°09' W 123°02'0 0.0
2016-Aug-28 16:33N 49°09' W 123°02'0 0.0
2016-Aug-28 15:33N 49°09' W 123°02'3 3.3
2016-Aug-28 14:34N 49°07' W 123°06'9 8.8
2016-Aug-28 13:34N 49°06' W 123°20'1010.4
2016-Aug-28 12:34N 49°10' W 123°35'1010.4
2016-Aug-28 11:34N 49°13' W 123°50'5 4.8
2016-Aug-28 10:33N 49°10' W 123°56'0 0.0
2016-Aug-28 09:34N 49°10' W 123°56'3 3.1
2016-Aug-28 08:34N 49°12' W 123°53'1110.4
2016-Aug-28 07:33N 49°11' W 123°37'1110.7
2016-Aug-28 06:33N 49°07' W 123°22'1211.8
2016-Aug-28 05:34N 49°08' W 123°04'1 1.4
2016-Aug-28 04:34N 49°09' W 123°02'0 0.0
2016-Aug-28 03:33N 49°09' W 123°02'0 0.0
2016-Aug-28 02:34N 49°09' W 123°02'0 0.0
2016-Aug-28 01:34N 49°09' W 123°02'0 0.0
2016-Aug-28 00:33N 49°09' W 123°02'0 0.0
2016-Aug-27 23:34N 49°09' W 123°02'5 5.3
2016-Aug-27 22:33N 49°07' W 123°10'8 8.4
2016-Aug-27 21:33N 49°06' W 123°23'8 8.5
2016-Aug-27 20:34N 49°10' W 123°35'9 8.9
2016-Aug-27 19:33N 49°13' W 123°48'6 5.7
2016-Aug-27 18:28N 49°10' W 123°56'0 0.0
2016-Aug-27 17:33N 49°10' W 123°56'0 0.0
2016-Aug-27 16:32N 49°10' W 123°56'0 0.0
2016-Aug-27 15:33N 49°10' W 123°56'0 0.0
2016-Aug-27 14:32N 49°10' W 123°56'0 0.0
2016-Aug-27 13:33N 49°10' W 123°56'0 0.0
2016-Aug-27 12:34N 49°10' W 123°56'0 0.0
2016-Aug-27 11:32N 49°10' W 123°56'3 3.2
2016-Aug-27 10:33N 49°12' W 123°53'1312.7
2016-Aug-27 09:33N 49°10' W 123°34'1212.4
2016-Aug-27 08:34N 49°07' W 123°15'9 8.7
2016-Aug-27 07:33N 49°09' W 123°02'0 0.0
2016-Aug-27 06:33N 49°09' W 123°02'14 6.9
2016-Aug-27 04:33N 49°00' W 123°19'1211.5
2016-Aug-27 03:33N 48°49' W 123°21'8 7.8
2016-Aug-27 02:33N 48°41' W 123°24'0 0.0
2016-Aug-27 01:31N 48°41' W 123°24'6 5.9
2016-Aug-27 00:31N 48°47' W 123°21'1212.3
2016-Aug-26 23:33N 48°58' W 123°19'1010.1
2016-Aug-26 22:33N 49°07' W 123°10'5 5.4
2016-Aug-26 21:33N 49°09' W 123°02'0 0.0
2016-Aug-26 20:33N 49°09' W 123°02'9 9.4
2016-Aug-26 19:33N 49°07' W 123°16'1212.2
2016-Aug-26 18:33N 49°09' W 123°35'1212.4
2016-Aug-26 17:33N 49°12' W 123°53'3 2.5
2016-Aug-26 16:33N 49°10' W 123°56'0 0.0
2016-Aug-26 15:33N 49°10' W 123°56'0 0.0
2016-Aug-26 14:32N 49°10' W 123°56'0 0.0
2016-Aug-26 13:34N 49°10' W 123°56'0 0.0
2016-Aug-26 12:33N 49°10' W 123°56'4 1.8
2016-Aug-26 10:33N 49°13' W 123°52'1313.4
2016-Aug-26 09:33N 49°10' W 123°33'1312.5
2016-Aug-26 08:33N 49°08' W 123°14'8 7.5
2016-Aug-26 07:33N 49°09' W 123°02'0 0.0
2016-Aug-26 06:33N 49°09' W 123°02'15 7.4
2016-Aug-26 04:33N 48°59' W 123°19'1312.4
2016-Aug-26 03:32N 48°47' W 123°21'6 2.6
2016-Aug-26 01:21N 48°41' W 123°24'4 5.0
2016-Aug-26 00:33N 48°44' W 123°21'1111.6
2016-Aug-25 23:33N 48°56' W 123°19'1212.3
2016-Aug-25 22:33N 49°07' W 123°12'7 6.7
2016-Aug-25 21:33N 49°09' W 123°02'0 0.0
2016-Aug-25 20:33N 49°09' W 123°02'9 8.8
2016-Aug-25 19:33N 49°07' W 123°16'1111.2
2016-Aug-25 18:33N 49°09' W 123°33'1413.7
2016-Aug-25 17:33N 49°12' W 123°53'2 2.2
2016-Aug-25 16:26N 49°10' W 123°56'0 0.0
2016-Aug-25 14:13N 49°10' W 123°56'0 0.0
2016-Aug-25 13:24N 49°10' W 123°56'0 0.0
2016-Aug-25 12:32N 49°10' W 123°56'0 0.0
2016-Aug-25 11:33N 49°10' W 123°56'4 4.4
2016-Aug-25 10:33N 49°13' W 123°51'1212.3
2016-Aug-25 09:33N 49°10' W 123°33'1211.9
2016-Aug-25 08:33N 49°08' W 123°15'9 8.6
2016-Aug-25 07:33N 49°09' W 123°02'0 0.0
2016-Aug-25 06:33N 49°09' W 123°02'14 6.8
2016-Aug-25 04:33N 48°59' W 123°17'1312.5
2016-Aug-25 03:32N 48°47' W 123°21'6 3.0
2016-Aug-25 01:31N 48°41' W 123°24'3 3.4
2016-Aug-25 00:33N 48°44' W 123°21'1413.5
2016-Aug-24 23:33N 48°57' W 123°19'1111.2
2016-Aug-24 22:33N 49°07' W 123°10'6 5.7
2016-Aug-24 21:33N 49°09' W 123°02'0 0.0
2016-Aug-24 20:33N 49°09' W 123°02'6 6.0
2016-Aug-24 19:33N 49°07' W 123°11'1313.4
2016-Aug-24 18:33N 49°09' W 123°31'1514.5
2016-Aug-24 17:33N 49°12' W 123°53'3 1.2
2016-Aug-24 15:06N 49°10' W 123°56'0 0.0
2016-Aug-24 14:28N 49°10' W 123°56'0 0.0
2016-Aug-24 13:32N 49°10' W 123°56'0 0.0
2016-Aug-24 12:33N 49°10' W 123°56'0 0.0
2016-Aug-24 11:33N 49°10' W 123°56'2 1.9
2016-Aug-24 10:33N 49°11' W 123°54'1212.3
2016-Aug-24 09:33N 49°10' W 123°35'1312.7
2016-Aug-24 08:33N 49°07' W 123°17'10 9.6
2016-Aug-24 07:33N 49°09' W 123°02'0 0.0
2016-Aug-24 06:33N 49°09' W 123°02'12 6.2
2016-Aug-24 04:33N 49°01' W 123°17'1212.2
2016-Aug-24 03:33N 48°49' W 123°20'8 7.7
2016-Aug-24 02:28N 48°41' W 123°24'0 0.0
2016-Aug-24 01:17N 48°41' W 123°24'4 4.8
2016-Aug-24 00:33N 48°44' W 123°21'1212.1
2016-Aug-23 23:33N 48°56' W 123°19'1312.6
2016-Aug-23 22:33N 49°08' W 123°14'8 7.6
2016-Aug-23 21:33N 49°09' W 123°02'0 0.0
2016-Aug-23 20:33N 49°09' W 123°02'6 6.0
2016-Aug-23 19:33N 49°07' W 123°11'1313.4
2016-Aug-23 18:33N 49°09' W 123°31'1514.7
2016-Aug-23 17:33N 49°12' W 123°53'3 2.3
2016-Aug-23 16:19N 49°10' W 123°56'0 0.0
2016-Aug-23 15:28N 49°10' W 123°56'0 0.0
2016-Aug-23 14:23N 49°10' W 123°56'0 0.0
2016-Aug-23 13:33N 49°10' W 123°56'0 0.0
2016-Aug-23 12:32N 49°10' W 123°56'0 0.0
2016-Aug-23 11:33N 49°10' W 123°56'2 1.8
2016-Aug-23 10:33N 49°11' W 123°54'1111.5
2016-Aug-23 09:34N 49°11' W 123°36'1312.9
2016-Aug-23 08:34N 49°06' W 123°18'1110.5
2016-Aug-23 07:33N 49°09' W 123°02'0 0.0
2016-Aug-23 06:33N 49°09' W 123°02'4 4.1
2016-Aug-23 05:33N 49°06' W 123°07'10 9.6
2016-Aug-23 04:33N 49°00' W 123°19'1312.6
2016-Aug-23 03:32N 48°47' W 123°21'7 5.6
2016-Aug-23 02:21N 48°41' W 123°24'0 0.0
2016-Aug-23 01:32N 48°41' W 123°24'5 5.1
2016-Aug-23 00:33N 48°46' W 123°21'1111.2
2016-Aug-22 23:33N 48°57' W 123°18'1111.4
2016-Aug-22 22:34N 49°07' W 123°11'6 6.2
2016-Aug-22 21:33N 49°09' W 123°02'0 0.0
2016-Aug-22 20:33N 49°09' W 123°02'0 0.0
2016-Aug-22 19:33N 49°09' W 123°02'0 0.0
2016-Aug-22 18:33N 49°09' W 123°02'0 0.0
2016-Aug-22 17:33N 49°09' W 123°02'0 0.0
2016-Aug-22 16:33N 49°09' W 123°02'0 0.0
2016-Aug-22 15:33N 49°09' W 123°02'0 0.0
2016-Aug-22 14:33N 49°09' W 123°02'0 0.0
2016-Aug-22 13:33N 49°09' W 123°02'0 0.0
2016-Aug-22 12:33N 49°09' W 123°02'0 0.0
2016-Aug-22 11:33N 49°09' W 123°02'0 0.0
2016-Aug-22 10:33N 49°09' W 123°02'0 0.0
2016-Aug-22 09:33N 49°09' W 123°02'0 0.0
2016-Aug-22 08:33N 49°09' W 123°02'0 0.0
2016-Aug-22 07:33N 49°09' W 123°02'0 0.0
2016-Aug-22 06:33N 49°09' W 123°02'0 0.0
2016-Aug-22 05:33N 49°09' W 123°02'0 0.0
2016-Aug-22 04:33N 49°09' W 123°02'0 0.0
2016-Aug-22 03:33N 49°09' W 123°02'0 0.0
2016-Aug-22 02:33N 49°09' W 123°02'0 0.0
2016-Aug-22 01:33N 49°09' W 123°02'0 0.0
2016-Aug-22 00:33N 49°09' W 123°02'0 0.0
2016-Aug-21 23:33N 49°09' W 123°02'0 0.0
2016-Aug-21 22:33N 49°09' W 123°02'0 0.0
2016-Aug-21 21:33N 49°09' W 123°02'0 0.0
2016-Aug-21 20:33N 49°09' W 123°02'0 0.0
2016-Aug-21 19:33N 49°09' W 123°02'0 0.0
2016-Aug-21 18:33N 49°09' W 123°02'0 0.0
2016-Aug-21 17:33N 49°09' W 123°02'0 0.0
2016-Aug-21 16:33N 49°09' W 123°02'0 0.1
2016-Aug-21 15:33N 49°09' W 123°02'0 0.5
2016-Aug-21 14:33N 49°09' W 123°03'1110.8
2016-Aug-21 13:33N 49°06' W 123°19'1110.6
2016-Aug-21 12:33N 49°10' W 123°34'10 9.6
2016-Aug-21 11:33N 49°13' W 123°48'6 6.0
2016-Aug-21 10:33N 49°10' W 123°56'0 0.0
2016-Aug-21 09:33N 49°10' W 123°56'4 4.2
2016-Aug-21 08:33N 49°13' W 123°51'9 9.3
2016-Aug-21 07:33N 49°12' W 123°37'10 9.5
2016-Aug-21 06:33N 49°07' W 123°24'1010.4
2016-Aug-21 05:33N 49°07' W 123°08'5 4.5
2016-Aug-21 04:33N 49°09' W 123°02'0 0.0
2016-Aug-21 03:33N 49°09' W 123°02'0 0.0
2016-Aug-21 02:33N 49°09' W 123°02'0 0.0
2016-Aug-21 01:33N 49°09' W 123°02'0 0.0
2016-Aug-21 00:33N 49°09' W 123°02'0 0.0
2016-Aug-20 23:33N 49°09' W 123°02'5 4.9
2016-Aug-20 22:33N 49°06' W 123°09'9 9.4
2016-Aug-20 21:33N 49°07' W 123°23'1010.4
2016-Aug-20 20:33N 49°10' W 123°38'10 9.9
2016-Aug-20 19:33N 49°10' W 123°53'2 1.7
2016-Aug-20 18:32N 49°10' W 123°56'0 0.0
2016-Aug-20 17:34N 49°10' W 123°56'0 0.0
2016-Aug-20 16:33N 49°10' W 123°56'0 0.0
2016-Aug-20 15:34N 49°10' W 123°56'0 0.0
2016-Aug-20 14:32N 49°10' W 123°56'0 0.0
2016-Aug-20 13:29N 49°10' W 123°56'0 0.0
2016-Aug-20 12:31N 49°10' W 123°56'0 0.0
2016-Aug-20 11:34N 49°10' W 123°56'0 0.3
2016-Aug-20 10:33N 49°10' W 123°55'1211.9
2016-Aug-20 09:33N 49°11' W 123°37'1313.2
2016-Aug-20 08:33N 49°06' W 123°19'1111.1
2016-Aug-20 07:33N 49°09' W 123°02'0 0.0
2016-Aug-20 06:33N 49°09' W 123°02'6 5.9
2016-Aug-20 05:33N 49°07' W 123°11'9 9.2
2016-Aug-20 04:33N 48°59' W 123°17'1212.1
2016-Aug-20 03:33N 48°47' W 123°21'6 2.4
2016-Aug-20 01:05N 48°41' W 123°24'510.0
2016-Aug-20 00:34N 48°46' W 123°21'1110.9
2016-Aug-19 23:33N 48°57' W 123°20'1211.8
2016-Aug-19 22:33N 49°07' W 123°11'6 6.1
2016-Aug-19 21:34N 49°09' W 123°02'0 0.1
2016-Aug-19 20:33N 49°09' W 123°02'1010.0
2016-Aug-19 19:34N 49°07' W 123°17'1413.9
2016-Aug-19 18:33N 49°11' W 123°38'1211.7
2016-Aug-19 17:32N 49°10' W 123°56'0 0.0
2016-Aug-19 16:33N 49°10' W 123°56'0 0.0
2016-Aug-19 15:33N 49°10' W 123°56'0 0.0
2016-Aug-19 14:33N 49°10' W 123°56'0 0.0
2016-Aug-19 13:32N 49°10' W 123°56'0 0.0
2016-Aug-19 12:33N 49°10' W 123°56'0 0.0
2016-Aug-19 11:33N 49°10' W 123°56'0 0.3
2016-Aug-19 10:33N 49°10' W 123°55'1111.2
2016-Aug-19 09:33N 49°12' W 123°38'1212.6
2016-Aug-19 08:33N 49°07' W 123°21'1212.5
2016-Aug-19 07:33N 49°09' W 123°02'0 0.0
2016-Aug-19 06:33N 49°09' W 123°02'  
Track history (hours):
 
Tides and Currents Weather Stations Pressure Air Temp Water Temp Dewpoint Dewpoint Depression Visibility Wind Speed Wind Dir Waves Ship Positions

Carrier Princess

Last reported at 2016-Aug-29 06:33 UTC. Time now 2016-Aug-29 07:16 UTC.
Position N 49°09' W 123°02'.

Length 112 m; draft 3 m.

Type: Cargo ship. MMSI: 316003656.

Date/timePositionNaut miles runAvg speedWind from/ knotsBaromVisibWave heightAir tempDewpointWater temp
2016-Aug-29 06:33N 49°09' W 123°02'0 0.0
2016-Aug-29 05:34N 49°09' W 123°02'0 0.0
2016-Aug-29 04:34N 49°09' W 123°02'0 0.0
2016-Aug-29 03:33N 49°09' W 123°02'0 0.0
2016-Aug-29 02:34N 49°09' W 123°02'0 0.0
2016-Aug-29 01:33N 49°09' W 123°02'0 0.0
2016-Aug-29 00:33N 49°09' W 123°02'0 0.0
2016-Aug-28 23:34N 49°09' W 123°02'0 0.0
2016-Aug-28 22:34N 49°09' W 123°02'0 0.0
2016-Aug-28 21:33N 49°09' W 123°02'0 0.0
2016-Aug-28 20:34N 49°09' W 123°02'0 0.0
2016-Aug-28 19:34N 49°09' W 123°02'0 0.0
2016-Aug-28 18:34N 49°09' W 123°02'0 0.0
2016-Aug-28 17:34N 49°09' W 123°02'0 0.0
2016-Aug-28 16:33N 49°09' W 123°02'0 0.0
2016-Aug-28 15:33N 49°09' W 123°02'3 3.3
2016-Aug-28 14:34N 49°07' W 123°06'9 8.8
2016-Aug-28 13:34N 49°06' W 123°20'1010.4
2016-Aug-28 12:34N 49°10' W 123°35'1010.4
2016-Aug-28 11:34N 49°13' W 123°50'5 4.8
2016-Aug-28 10:33N 49°10' W 123°56'0 0.0
2016-Aug-28 09:34N 49°10' W 123°56'3 3.1
2016-Aug-28 08:34N 49°12' W 123°53'1110.4
2016-Aug-28 07:33N 49°11' W 123°37'1110.7
2016-Aug-28 06:33N 49°07' W 123°22'1211.8
2016-Aug-28 05:34N 49°08' W 123°04'1 1.4
2016-Aug-28 04:34N 49°09' W 123°02'0 0.0
2016-Aug-28 03:33N 49°09' W 123°02'0 0.0
2016-Aug-28 02:34N 49°09' W 123°02'0 0.0
2016-Aug-28 01:34N 49°09' W 123°02'0 0.0
2016-Aug-28 00:33N 49°09' W 123°02'0 0.0
2016-Aug-27 23:34N 49°09' W 123°02'5 5.3
2016-Aug-27 22:33N 49°07' W 123°10'8 8.4
2016-Aug-27 21:33N 49°06' W 123°23'8 8.5
2016-Aug-27 20:34N 49°10' W 123°35'9 8.9
2016-Aug-27 19:33N 49°13' W 123°48'6 5.7
2016-Aug-27 18:28N 49°10' W 123°56'0 0.0
2016-Aug-27 17:33N 49°10' W 123°56'0 0.0
2016-Aug-27 16:32N 49°10' W 123°56'0 0.0
2016-Aug-27 15:33N 49°10' W 123°56'0 0.0
2016-Aug-27 14:32N 49°10' W 123°56'0 0.0
2016-Aug-27 13:33N 49°10' W 123°56'0 0.0
2016-Aug-27 12:34N 49°10' W 123°56'0 0.0
2016-Aug-27 11:32N 49°10' W 123°56'3 3.2
2016-Aug-27 10:33N 49°12' W 123°53'1312.7
2016-Aug-27 09:33N 49°10' W 123°34'1212.4
2016-Aug-27 08:34N 49°07' W 123°15'9 8.7
2016-Aug-27 07:33N 49°09' W 123°02'0 0.0
2016-Aug-27 06:33N 49°09' W 123°02'14 6.9
2016-Aug-27 04:33N 49°00' W 123°19'1211.5
2016-Aug-27 03:33N 48°49' W 123°21'8 7.8
2016-Aug-27 02:33N 48°41' W 123°24'0 0.0
2016-Aug-27 01:31N 48°41' W 123°24'6 5.9
2016-Aug-27 00:31N 48°47' W 123°21'1212.3
2016-Aug-26 23:33N 48°58' W 123°19'1010.1
2016-Aug-26 22:33N 49°07' W 123°10'5 5.4
2016-Aug-26 21:33N 49°09' W 123°02'0 0.0
2016-Aug-26 20:33N 49°09' W 123°02'9 9.4
2016-Aug-26 19:33N 49°07' W 123°16'1212.2
2016-Aug-26 18:33N 49°09' W 123°35'1212.4
2016-Aug-26 17:33N 49°12' W 123°53'3 2.5
2016-Aug-26 16:33N 49°10' W 123°56'0 0.0
2016-Aug-26 15:33N 49°10' W 123°56'0 0.0
2016-Aug-26 14:32N 49°10' W 123°56'0 0.0
2016-Aug-26 13:34N 49°10' W 123°56'0 0.0
2016-Aug-26 12:33N 49°10' W 123°56'4 1.8
2016-Aug-26 10:33N 49°13' W 123°52'1313.4
2016-Aug-26 09:33N 49°10' W 123°33'1312.5
2016-Aug-26 08:33N 49°08' W 123°14'8 7.5
2016-Aug-26 07:33N 49°09' W 123°02'0 0.0
2016-Aug-26 06:33N 49°09' W 123°02'15 7.4
2016-Aug-26 04:33N 48°59' W 123°19'1312.4
2016-Aug-26 03:32N 48°47' W 123°21'6 2.6
2016-Aug-26 01:21N 48°41' W 123°24'4 5.0
2016-Aug-26 00:33N 48°44' W 123°21'1111.6
2016-Aug-25 23:33N 48°56' W 123°19'1212.3
2016-Aug-25 22:33N 49°07' W 123°12'7 6.7
2016-Aug-25 21:33N 49°09' W 123°02'0 0.0
2016-Aug-25 20:33N 49°09' W 123°02'9 8.8
2016-Aug-25 19:33N 49°07' W 123°16'1111.2
2016-Aug-25 18:33N 49°09' W 123°33'1413.7
2016-Aug-25 17:33N 49°12' W 123°53'2 2.2
2016-Aug-25 16:26N 49°10' W 123°56'0 0.0
2016-Aug-25 14:13N 49°10' W 123°56'0 0.0
2016-Aug-25 13:24N 49°10' W 123°56'0 0.0
2016-Aug-25 12:32N 49°10' W 123°56'0 0.0
2016-Aug-25 11:33N 49°10' W 123°56'4 4.4
2016-Aug-25 10:33N 49°13' W 123°51'1212.3
2016-Aug-25 09:33N 49°10' W 123°33'1211.9
2016-Aug-25 08:33N 49°08' W 123°15'9 8.6
2016-Aug-25 07:33N 49°09' W 123°02'0 0.0
2016-Aug-25 06:33N 49°09' W 123°02'14 6.8
2016-Aug-25 04:33N 48°59' W 123°17'1312.5
2016-Aug-25 03:32N 48°47' W 123°21'6 3.0
2016-Aug-25 01:31N 48°41' W 123°24'3 3.4
2016-Aug-25 00:33N 48°44' W 123°21'1413.5
2016-Aug-24 23:33N 48°57' W 123°19'1111.2
2016-Aug-24 22:33N 49°07' W 123°10'6 5.7
2016-Aug-24 21:33N 49°09' W 123°02'0 0.0
2016-Aug-24 20:33N 49°09' W 123°02'6 6.0
2016-Aug-24 19:33N 49°07' W 123°11'1313.4
2016-Aug-24 18:33N 49°09' W 123°31'1514.5
2016-Aug-24 17:33N 49°12' W 123°53'3 1.2
2016-Aug-24 15:06N 49°10' W 123°56'0 0.0
2016-Aug-24 14:28N 49°10' W 123°56'0 0.0
2016-Aug-24 13:32N 49°10' W 123°56'0 0.0
2016-Aug-24 12:33N 49°10' W 123°56'0 0.0
2016-Aug-24 11:33N 49°10' W 123°56'2 1.9
2016-Aug-24 10:33N 49°11' W 123°54'1212.3
2016-Aug-24 09:33N 49°10' W 123°35'1312.7
2016-Aug-24 08:33N 49°07' W 123°17'10 9.6
2016-Aug-24 07:33N 49°09' W 123°02'0 0.0
2016-Aug-24 06:33N 49°09' W 123°02'12 6.2
2016-Aug-24 04:33N 49°01' W 123°17'1212.2
2016-Aug-24 03:33N 48°49' W 123°20'8 7.7
2016-Aug-24 02:28N 48°41' W 123°24'0 0.0
2016-Aug-24 01:17N 48°41' W 123°24'4 4.8
2016-Aug-24 00:33N 48°44' W 123°21'1212.1
2016-Aug-23 23:33N 48°56' W 123°19'1312.6
2016-Aug-23 22:33N 49°08' W 123°14'8 7.6
2016-Aug-23 21:33N 49°09' W 123°02'0 0.0
2016-Aug-23 20:33N 49°09' W 123°02'6 6.0
2016-Aug-23 19:33N 49°07' W 123°11'1313.4
2016-Aug-23 18:33N 49°09' W 123°31'1514.7
2016-Aug-23 17:33N 49°12' W 123°53'3 2.3
2016-Aug-23 16:19N 49°10' W 123°56'0 0.0
2016-Aug-23 15:28N 49°10' W 123°56'0 0.0
2016-Aug-23 14:23N 49°10' W 123°56'0 0.0
2016-Aug-23 13:33N 49°10' W 123°56'0 0.0
2016-Aug-23 12:32N 49°10' W 123°56'0 0.0
2016-Aug-23 11:33N 49°10' W 123°56'2 1.8
2016-Aug-23 10:33N 49°11' W 123°54'1111.5
2016-Aug-23 09:34N 49°11' W 123°36'1312.9
2016-Aug-23 08:34N 49°06' W 123°18'1110.5
2016-Aug-23 07:33N 49°09' W 123°02'0 0.0
2016-Aug-23 06:33N 49°09' W 123°02'4 4.1
2016-Aug-23 05:33N 49°06' W 123°07'10 9.6
2016-Aug-23 04:33N 49°00' W 123°19'1312.6
2016-Aug-23 03:32N 48°47' W 123°21'7 5.6
2016-Aug-23 02:21N 48°41' W 123°24'0 0.0
2016-Aug-23 01:32N 48°41' W 123°24'5 5.1
2016-Aug-23 00:33N 48°46' W 123°21'1111.2
2016-Aug-22 23:33N 48°57' W 123°18'1111.4
2016-Aug-22 22:34N 49°07' W 123°11'6 6.2
2016-Aug-22 21:33N 49°09' W 123°02'0 0.0
2016-Aug-22 20:33N 49°09' W 123°02'0 0.0
2016-Aug-22 19:33N 49°09' W 123°02'0 0.0
2016-Aug-22 18:33N 49°09' W 123°02'0 0.0
2016-Aug-22 17:33N 49°09' W 123°02'0 0.0
2016-Aug-22 16:33N 49°09' W 123°02'0 0.0
2016-Aug-22 15:33N 49°09' W 123°02'0 0.0
2016-Aug-22 14:33N 49°09' W 123°02'0 0.0
2016-Aug-22 13:33N 49°09' W 123°02'0 0.0
2016-Aug-22 12:33N 49°09' W 123°02'0 0.0
2016-Aug-22 11:33N 49°09' W 123°02'0 0.0
2016-Aug-22 10:33N 49°09' W 123°02'0 0.0
2016-Aug-22 09:33N 49°09' W 123°02'0 0.0
2016-Aug-22 08:33N 49°09' W 123°02'0 0.0
2016-Aug-22 07:33N 49°09' W 123°02'0 0.0
2016-Aug-22 06:33N 49°09' W 123°02'0 0.0
2016-Aug-22 05:33N 49°09' W 123°02'0 0.0
2016-Aug-22 04:33N 49°09' W 123°02'0 0.0
2016-Aug-22 03:33N 49°09' W 123°02'0 0.0
2016-Aug-22 02:33N 49°09' W 123°02'0 0.0
2016-Aug-22 01:33N 49°09' W 123°02'0 0.0
2016-Aug-22 00:33N 49°09' W 123°02'0 0.0
2016-Aug-21 23:33N 49°09' W 123°02'0 0.0
2016-Aug-21 22:33N 49°09' W 123°02'0 0.0
2016-Aug-21 21:33N 49°09' W 123°02'0 0.0
2016-Aug-21 20:33N 49°09' W 123°02'0 0.0
2016-Aug-21 19:33N 49°09' W 123°02'0 0.0
2016-Aug-21 18:33N 49°09' W 123°02'0 0.0
2016-Aug-21 17:33N 49°09' W 123°02'0 0.0
2016-Aug-21 16:33N 49°09' W 123°02'0 0.1
2016-Aug-21 15:33N 49°09' W 123°02'0 0.5
2016-Aug-21 14:33N 49°09' W 123°03'1110.8
2016-Aug-21 13:33N 49°06' W 123°19'1110.6
2016-Aug-21 12:33N 49°10' W 123°34'10 9.6
2016-Aug-21 11:33N 49°13' W 123°48'6 6.0
2016-Aug-21 10:33N 49°10' W 123°56'0 0.0
2016-Aug-21 09:33N 49°10' W 123°56'4 4.2
2016-Aug-21 08:33N 49°13' W 123°51'9 9.3
2016-Aug-21 07:33N 49°12' W 123°37'10 9.5
2016-Aug-21 06:33N 49°07' W 123°24'1010.4
2016-Aug-21 05:33N 49°07' W 123°08'5 4.5
2016-Aug-21 04:33N 49°09' W 123°02'0 0.0
2016-Aug-21 03:33N 49°09' W 123°02'0 0.0
2016-Aug-21 02:33N 49°09' W 123°02'0 0.0
2016-Aug-21 01:33N 49°09' W 123°02'0 0.0
2016-Aug-21 00:33N 49°09' W 123°02'0 0.0
2016-Aug-20 23:33N 49°09' W 123°02'5 4.9
2016-Aug-20 22:33N 49°06' W 123°09'9 9.4
2016-Aug-20 21:33N 49°07' W 123°23'1010.4
2016-Aug-20 20:33N 49°10' W 123°38'10 9.9
2016-Aug-20 19:33N 49°10' W 123°53'2 1.7
2016-Aug-20 18:32N 49°10' W 123°56'0 0.0
2016-Aug-20 17:34N 49°10' W 123°56'0 0.0
2016-Aug-20 16:33N 49°10' W 123°56'0 0.0
2016-Aug-20 15:34N 49°10' W 123°56'0 0.0
2016-Aug-20 14:32N 49°10' W 123°56'0 0.0
2016-Aug-20 13:29N 49°10' W 123°56'0 0.0
2016-Aug-20 12:31N 49°10' W 123°56'0 0.0
2016-Aug-20 11:34N 49°10' W 123°56'0 0.3
2016-Aug-20 10:33N 49°10' W 123°55'1211.9
2016-Aug-20 09:33N 49°11' W 123°37'1313.2
2016-Aug-20 08:33N 49°06' W 123°19'1111.1
2016-Aug-20 07:33N 49°09' W 123°02'0 0.0
2016-Aug-20 06:33N 49°09' W 123°02'6 5.9
2016-Aug-20 05:33N 49°07' W 123°11'9 9.2
2016-Aug-20 04:33N 48°59' W 123°17'1212.1
2016-Aug-20 03:33N 48°47' W 123°21'6 2.4
2016-Aug-20 01:05N 48°41' W 123°24'510.0
2016-Aug-20 00:34N 48°46' W 123°21'1110.9
2016-Aug-19 23:33N 48°57' W 123°20'1211.8
2016-Aug-19 22:33N 49°07' W 123°11'6 6.1
2016-Aug-19 21:34N 49°09' W 123°02'0 0.1
2016-Aug-19 20:33N 49°09' W 123°02'1010.0
2016-Aug-19 19:34N 49°07' W 123°17'1413.9
2016-Aug-19 18:33N 49°11' W 123°38'1211.7
2016-Aug-19 17:32N 49°10' W 123°56'0 0.0
2016-Aug-19 16:33N 49°10' W 123°56'0 0.0
2016-Aug-19 15:33N 49°10' W 123°56'0 0.0
2016-Aug-19 14:33N 49°10' W 123°56'0 0.0
2016-Aug-19 13:32N 49°10' W 123°56'0 0.0
2016-Aug-19 12:33N 49°10' W 123°56'0 0.0
2016-Aug-19 11:33N 49°10' W 123°56'0 0.3
2016-Aug-19 10:33N 49°10' W 123°55'1111.2
2016-Aug-19 09:33N 49°12' W 123°38'1212.6
2016-Aug-19 08:33N 49°07' W 123°21'1212.5
2016-Aug-19 07:33N 49°09' W 123°02'0 0.0
2016-Aug-19 06:33N 49°09' W 123°02'  

Dump ship's entire track history